sensor_id;sensor_type;location;lat;lon;timestamp;pressure;altitude;pressure_sealevel;temperature
69415;BMP280;56608;43.530;-5.652;2023-04-01T00:00:04;101947.31;;;15.80
69415;BMP280;56608;43.530;-5.652;2023-04-01T00:01:05;101946.53;;;15.79
69415;BMP280;56608;43.530;-5.652;2023-04-01T00:02:06;101948.41;;;15.82
69415;BMP280;56608;43.530;-5.652;2023-04-01T00:03:07;101955.66;;;15.85
69415;BMP280;56608;43.530;-5.652;2023-04-01T00:04:07;101961.06;;;15.85
69415;BMP280;56608;43.530;-5.652;2023-04-01T00:05:07;101957.09;;;15.77
69415;BMP280;56608;43.530;-5.652;2023-04-01T00:06:09;101961.47;;;15.84
69415;BMP280;56608;43.530;-5.652;2023-04-01T00:07:09;101964.41;;;15.89
69415;BMP280;56608;43.530;-5.652;2023-04-01T00:08:09;101970.03;;;15.95
69415;BMP280;56608;43.530;-5.652;2023-04-01T00:09:10;101961.31;;;16.00
69415;BMP280;56608;43.530;-5.652;2023-04-01T00:10:11;101963.28;;;15.99
69415;BMP280;56608;43.530;-5.652;2023-04-01T00:11:11;101963.28;;;15.99
69415;BMP280;56608;43.530;-5.652;2023-04-01T00:12:12;101958.69;;;15.87
69415;BMP280;56608;43.530;-5.652;2023-04-01T00:13:12;101962.03;;;15.91
69415;BMP280;56608;43.530;-5.652;2023-04-01T00:14:13;101961.28;;;15.91
69415;BMP280;56608;43.530;-5.652;2023-04-01T00:15:13;101959.31;;;15.91
69415;BMP280;56608;43.530;-5.652;2023-04-01T00:16:14;101969.53;;;15.87
69415;BMP280;56608;43.530;-5.652;2023-04-01T00:17:14;101964.19;;;15.84
69415;BMP280;56608;43.530;-5.652;2023-04-01T00:18:15;101960.09;;;15.79
69415;BMP280;56608;43.530;-5.652;2023-04-01T00:19:15;101961.19;;;15.82
69415;BMP280;56608;43.530;-5.652;2023-04-01T00:20:15;101959.78;;;15.77
69415;BMP280;56608;43.530;-5.652;2023-04-01T00:21:16;101956.44;;;15.73
69415;BMP280;56608;43.530;-5.652;2023-04-01T00:22:17;101959.41;;;15.66
69415;BMP280;56608;43.530;-5.652;2023-04-01T00:23:17;101951.41;;;15.50
69415;BMP280;56608;43.530;-5.652;2023-04-01T00:24:18;101957.81;;;15.43
69415;BMP280;56608;43.530;-5.652;2023-04-01T00:25:19;101952.16;;;15.50
69415;BMP280;56608;43.530;-5.652;2023-04-01T00:26:19;101953.06;;;15.35
69415;BMP280;56608;43.530;-5.652;2023-04-01T00:27:21;101948.19;;;15.30
69415;BMP280;56608;43.530;-5.652;2023-04-01T00:28:21;101946.34;;;15.39
69415;BMP280;56608;43.530;-5.652;2023-04-01T00:29:22;101942.00;;;15.42
69415;BMP280;56608;43.530;-5.652;2023-04-01T00:30:24;101938.31;;;15.48
69415;BMP280;56608;43.530;-5.652;2023-04-01T00:31:24;101944.59;;;15.45
69415;BMP280;56608;43.530;-5.652;2023-04-01T00:32:25;101940.69;;;15.46
69415;BMP280;56608;43.530;-5.652;2023-04-01T00:33:26;101943.91;;;15.54
69415;BMP280;56608;43.530;-5.652;2023-04-01T00:34:27;101942.50;;;15.62
69415;BMP280;56608;43.530;-5.652;2023-04-01T00:35:27;101947.34;;;15.67
69415;BMP280;56608;43.530;-5.652;2023-04-01T00:36:28;101951.53;;;15.59
69415;BMP280;56608;43.530;-5.652;2023-04-01T00:37:29;101948.69;;;15.50
69415;BMP280;56608;43.530;-5.652;2023-04-01T00:38:29;101950.19;;;15.51
69415;BMP280;56608;43.530;-5.652;2023-04-01T00:39:30;101955.94;;;15.53
69415;BMP280;56608;43.530;-5.652;2023-04-01T00:40:32;101948.44;;;15.57
69415;BMP280;56608;43.530;-5.652;2023-04-01T00:41:33;101948.81;;;15.59
69415;BMP280;56608;43.530;-5.652;2023-04-01T00:42:33;101947.91;;;15.62
69415;BMP280;56608;43.530;-5.652;2023-04-01T00:43:34;101943.19;;;15.41
69415;BMP280;56608;43.530;-5.652;2023-04-01T00:44:36;101947.00;;;15.31
69415;BMP280;56608;43.530;-5.652;2023-04-01T00:45:38;101943.19;;;15.28
69415;BMP280;56608;43.530;-5.652;2023-04-01T00:46:38;101936.09;;;15.21
69415;BMP280;56608;43.530;-5.652;2023-04-01T00:47:39;101937.34;;;15.30
69415;BMP280;56608;43.530;-5.652;2023-04-01T00:48:41;101943.66;;;15.27
69415;BMP280;56608;43.530;-5.652;2023-04-01T00:49:44;101939.31;;;15.16
69415;BMP280;56608;43.530;-5.652;2023-04-01T00:50:46;101939.72;;;15.27
69415;BMP280;56608;43.530;-5.652;2023-04-01T00:51:50;101934.87;;;15.22
69415;BMP280;56608;43.530;-5.652;2023-04-01T00:52:52;101933.44;;;15.31
69415;BMP280;56608;43.530;-5.652;2023-04-01T00:53:53;101931.41;;;15.35
69415;BMP280;56608;43.530;-5.652;2023-04-01T00:54:55;101927.56;;;15.45
69415;BMP280;56608;43.530;-5.652;2023-04-01T00:55:59;101931.37;;;15.47
69415;BMP280;56608;43.530;-5.652;2023-04-01T00:57:05;101929.09;;;15.46
69415;BMP280;56608;43.530;-5.652;2023-04-01T00:58:07;101923.06;;;15.42
69415;BMP280;56608;43.530;-5.652;2023-04-01T00:59:13;101921.34;;;15.35
69415;BMP280;56608;43.530;-5.652;2023-04-01T01:00:15;101934.53;;;15.33
69415;BMP280;56608;43.530;-5.652;2023-04-01T01:01:15;101936.53;;;15.33
69415;BMP280;56608;43.530;-5.652;2023-04-01T01:02:16;101937.69;;;15.32
69415;BMP280;56608;43.530;-5.652;2023-04-01T01:03:17;101946.56;;;15.32
69415;BMP280;56608;43.530;-5.652;2023-04-01T01:04:35;101930.22;;;15.36
69415;BMP280;56608;43.530;-5.652;2023-04-01T01:05:38;101935.63;;;15.36
69415;BMP280;56608;43.530;-5.652;2023-04-01T01:06:45;101929.31;;;15.39
69415;BMP280;56608;43.530;-5.652;2023-04-01T01:08:21;101928.41;;;15.33
69415;BMP280;56608;43.530;-5.652;2023-04-01T01:10:40;101931.41;;;15.22
69415;BMP280;56608;43.530;-5.652;2023-04-01T01:11:44;101929.03;;;15.24
69415;BMP280;56608;43.530;-5.652;2023-04-01T01:12:51;101927.41;;;15.27
69415;BMP280;56608;43.530;-5.652;2023-04-01T01:14:43;101926.75;;;15.22
69415;BMP280;56608;43.530;-5.652;2023-04-01T01:15:31;101916.56;;;15.27
69415;BMP280;56608;43.530;-5.652;2023-04-01T01:16:34;101920.03;;;15.27
69415;BMP280;56608;43.530;-5.652;2023-04-01T01:18:53;101910.28;;;15.30
69415;BMP280;56608;43.530;-5.652;2023-04-01T01:20:14;101914.84;;;15.20
69415;BMP280;56608;43.530;-5.652;2023-04-01T01:24:12;101915.63;;;15.08
69415;BMP280;56608;43.530;-5.652;2023-04-01T01:27:18;101918.44;;;14.92
69415;BMP280;56608;43.530;-5.652;2023-04-01T01:29:44;101908.28;;;14.83
69415;BMP280;56608;43.530;-5.652;2023-04-01T01:30:51;101910.12;;;14.86
69415;BMP280;56608;43.530;-5.652;2023-04-01T01:34:20;101913.25;;;14.84
69415;BMP280;56608;43.530;-5.652;2023-04-01T01:36:26;101903.81;;;14.76
69415;BMP280;56608;43.530;-5.652;2023-04-01T01:37:28;101900.59;;;14.69
69415;BMP280;56608;43.530;-5.652;2023-04-01T01:38:30;101906.62;;;14.73
69415;BMP280;56608;43.530;-5.652;2023-04-01T01:39:31;101909.47;;;14.69
69415;BMP280;56608;43.530;-5.652;2023-04-01T01:40:34;101909.88;;;14.68
69415;BMP280;56608;43.530;-5.652;2023-04-01T01:41:36;101905.44;;;14.61
69415;BMP280;56608;43.530;-5.652;2023-04-01T01:42:39;101919.09;;;14.58
69415;BMP280;56608;43.530;-5.652;2023-04-01T01:43:41;101910.44;;;14.63
69415;BMP280;56608;43.530;-5.652;2023-04-01T01:44:42;101906.31;;;14.58
69415;BMP280;56608;43.530;-5.652;2023-04-01T01:45:45;101899.28;;;14.61
69415;BMP280;56608;43.530;-5.652;2023-04-01T01:46:46;101906.22;;;14.62
69415;BMP280;56608;43.530;-5.652;2023-04-01T01:47:48;101902.53;;;14.56
69415;BMP280;56608;43.530;-5.652;2023-04-01T01:48:49;101908.22;;;14.45
69415;BMP280;56608;43.530;-5.652;2023-04-01T01:49:50;101902.81;;;14.45
69415;BMP280;56608;43.530;-5.652;2023-04-01T01:50:51;101906.50;;;14.51
69415;BMP280;56608;43.530;-5.652;2023-04-01T01:51:52;101913.34;;;14.56
69415;BMP280;56608;43.530;-5.652;2023-04-01T01:53:00;101910.09;;;14.61
69415;BMP280;56608;43.530;-5.652;2023-04-01T01:54:00;101907.50;;;14.70
69415;BMP280;56608;43.530;-5.652;2023-04-01T01:55:00;101902.84;;;14.70
69415;BMP280;56608;43.530;-5.652;2023-04-01T01:56:01;101908.91;;;14.74
69415;BMP280;56608;43.530;-5.652;2023-04-01T01:57:04;101901.84;;;14.77
69415;BMP280;56608;43.530;-5.652;2023-04-01T01:58:17;101901.00;;;14.80
69415;BMP280;56608;43.530;-5.652;2023-04-01T01:59:19;101897.16;;;14.81
69415;BMP280;56608;43.530;-5.652;2023-04-01T02:00:21;101903.63;;;14.83
69415;BMP280;56608;43.530;-5.652;2023-04-01T02:01:25;101900.69;;;14.91
69415;BMP280;56608;43.530;-5.652;2023-04-01T02:02:26;101895.72;;;14.89
69415;BMP280;56608;43.530;-5.652;2023-04-01T02:03:28;101900.28;;;14.92
69415;BMP280;56608;43.530;-5.652;2023-04-01T02:04:29;101895.06;;;14.98
69415;BMP280;56608;43.530;-5.652;2023-04-01T02:05:30;101901.22;;;14.98
69415;BMP280;56608;43.530;-5.652;2023-04-01T02:06:34;101900.22;;;15.05
69415;BMP280;56608;43.530;-5.652;2023-04-01T02:07:37;101906.41;;;15.05
69415;BMP280;56608;43.530;-5.652;2023-04-01T02:08:52;101898.75;;;15.04
69415;BMP280;56608;43.530;-5.652;2023-04-01T02:09:54;101903.38;;;15.03
69415;BMP280;56608;43.530;-5.652;2023-04-01T02:10:56;101912.56;;;15.06
69415;BMP280;56608;43.530;-5.652;2023-04-01T02:11:59;101903.16;;;15.10
69415;BMP280;56608;43.530;-5.652;2023-04-01T02:13:01;101905.66;;;15.17
69415;BMP280;56608;43.530;-5.652;2023-04-01T02:14:19;101911.37;;;15.19
69415;BMP280;56608;43.530;-5.652;2023-04-01T02:15:20;101910.00;;;15.15
69415;BMP280;56608;43.530;-5.652;2023-04-01T02:16:27;101908.06;;;15.15
69415;BMP280;56608;43.530;-5.652;2023-04-01T02:17:29;101909.53;;;15.16
69415;BMP280;56608;43.530;-5.652;2023-04-01T02:18:30;101916.81;;;15.19
69415;BMP280;56608;43.530;-5.652;2023-04-01T02:19:37;101915.28;;;15.18
69415;BMP280;56608;43.530;-5.652;2023-04-01T02:20:38;101909.66;;;15.25
69415;BMP280;56608;43.530;-5.652;2023-04-01T02:21:39;101918.06;;;15.27
69415;BMP280;56608;43.530;-5.652;2023-04-01T02:22:43;101914.16;;;15.29
69415;BMP280;56608;43.530;-5.652;2023-04-01T02:23:44;101914.84;;;15.33
69415;BMP280;56608;43.530;-5.652;2023-04-01T02:24:45;101914.41;;;15.34
69415;BMP280;56608;43.530;-5.652;2023-04-01T02:25:46;101911.25;;;15.23
69415;BMP280;56608;43.530;-5.652;2023-04-01T02:26:47;101919.16;;;15.30
69415;BMP280;56608;43.530;-5.652;2023-04-01T02:27:47;101923.53;;;15.15
69415;BMP280;56608;43.530;-5.652;2023-04-01T02:28:48;101921.69;;;15.12
69415;BMP280;56608;43.530;-5.652;2023-04-01T02:29:49;101929.16;;;15.20
69415;BMP280;56608;43.530;-5.652;2023-04-01T02:30:50;101925.78;;;15.16
69415;BMP280;56608;43.530;-5.652;2023-04-01T02:31:51;101927.84;;;15.12
69415;BMP280;56608;43.530;-5.652;2023-04-01T02:32:52;101924.72;;;15.14
69415;BMP280;56608;43.530;-5.652;2023-04-01T02:33:52;101930.00;;;15.17
69415;BMP280;56608;43.530;-5.652;2023-04-01T02:34:53;101919.50;;;15.19
69415;BMP280;56608;43.530;-5.652;2023-04-01T02:35:54;101915.16;;;15.22
69415;BMP280;56608;43.530;-5.652;2023-04-01T02:36:54;101921.22;;;15.26
69415;BMP280;56608;43.530;-5.652;2023-04-01T02:37:55;101924.50;;;15.21
69415;BMP280;56608;43.530;-5.652;2023-04-01T02:38:55;101928.63;;;15.13
69415;BMP280;56608;43.530;-5.652;2023-04-01T02:40:00;101927.53;;;15.10
69415;BMP280;56608;43.530;-5.652;2023-04-01T02:41:00;101931.75;;;15.11
69415;BMP280;56608;43.530;-5.652;2023-04-01T02:42:02;101926.66;;;15.01
69415;BMP280;56608;43.530;-5.652;2023-04-01T02:43:03;101930.66;;;14.96
69415;BMP280;56608;43.530;-5.652;2023-04-01T02:44:03;101930.03;;;14.92
69415;BMP280;56608;43.530;-5.652;2023-04-01T02:45:04;101923.50;;;14.77
69415;BMP280;56608;43.530;-5.652;2023-04-01T02:46:04;101925.91;;;14.75
69415;BMP280;56608;43.530;-5.652;2023-04-01T02:47:05;101929.78;;;14.74
69415;BMP280;56608;43.530;-5.652;2023-04-01T02:48:05;101931.31;;;14.75
69415;BMP280;56608;43.530;-5.652;2023-04-01T02:49:06;101933.81;;;14.82
69415;BMP280;56608;43.530;-5.652;2023-04-01T02:50:06;101928.72;;;14.84
69415;BMP280;56608;43.530;-5.652;2023-04-01T02:51:08;101929.03;;;14.73
69415;BMP280;56608;43.530;-5.652;2023-04-01T02:52:08;101926.97;;;14.77
69415;BMP280;56608;43.530;-5.652;2023-04-01T02:53:08;101937.91;;;14.61
69415;BMP280;56608;43.530;-5.652;2023-04-01T02:54:08;101935.37;;;14.54
69415;BMP280;56608;43.530;-5.652;2023-04-01T02:55:09;101924.97;;;14.53
69415;BMP280;56608;43.530;-5.652;2023-04-01T02:56:09;101929.25;;;14.66
69415;BMP280;56608;43.530;-5.652;2023-04-01T02:57:10;101929.47;;;14.72
69415;BMP280;56608;43.530;-5.652;2023-04-01T02:58:10;101933.12;;;14.78
69415;BMP280;56608;43.530;-5.652;2023-04-01T02:59:11;101926.75;;;14.72
69415;BMP280;56608;43.530;-5.652;2023-04-01T03:00:11;101917.66;;;14.66
69415;BMP280;56608;43.530;-5.652;2023-04-01T03:01:12;101916.28;;;14.74
69415;BMP280;56608;43.530;-5.652;2023-04-01T03:02:12;101912.69;;;14.77
69415;BMP280;56608;43.530;-5.652;2023-04-01T03:03:13;101910.66;;;14.68
69415;BMP280;56608;43.530;-5.652;2023-04-01T03:04:13;101903.81;;;14.64
69415;BMP280;56608;43.530;-5.652;2023-04-01T03:05:13;101907.28;;;14.64
69415;BMP280;56608;43.530;-5.652;2023-04-01T03:06:15;101907.72;;;14.63
69415;BMP280;56608;43.530;-5.652;2023-04-01T03:07:15;101905.78;;;14.63
69415;BMP280;56608;43.530;-5.652;2023-04-01T03:08:16;101912.59;;;14.68
69415;BMP280;56608;43.530;-5.652;2023-04-01T03:09:16;101905.13;;;14.72
69415;BMP280;56608;43.530;-5.652;2023-04-01T03:10:16;101906.97;;;14.62
69415;BMP280;56608;43.530;-5.652;2023-04-01T03:11:17;101909.22;;;14.64
69415;BMP280;56608;43.530;-5.652;2023-04-01T03:12:17;101920.44;;;14.50
69415;BMP280;56608;43.530;-5.652;2023-04-01T03:13:17;101911.25;;;14.47
69415;BMP280;56608;43.530;-5.652;2023-04-01T03:14:18;101916.88;;;14.40
69415;BMP280;56608;43.530;-5.652;2023-04-01T03:15:18;101912.19;;;14.40
69415;BMP280;56608;43.530;-5.652;2023-04-01T03:16:18;101907.66;;;14.37
69415;BMP280;56608;43.530;-5.652;2023-04-01T03:17:19;101911.22;;;14.34
69415;BMP280;56608;43.530;-5.652;2023-04-01T03:18:19;101907.25;;;14.39
69415;BMP280;56608;43.530;-5.652;2023-04-01T03:19:19;101906.91;;;14.37
69415;BMP280;56608;43.530;-5.652;2023-04-01T03:20:20;101910.03;;;14.35
69415;BMP280;56608;43.530;-5.652;2023-04-01T03:21:22;101909.00;;;14.45
69415;BMP280;56608;43.530;-5.652;2023-04-01T03:22:22;101909.62;;;14.50
69415;BMP280;56608;43.530;-5.652;2023-04-01T03:23:23;101898.69;;;14.53
69415;BMP280;56608;43.530;-5.652;2023-04-01T03:24:24;101904.22;;;14.50
69415;BMP280;56608;43.530;-5.652;2023-04-01T03:25:24;101900.75;;;14.36
69415;BMP280;56608;43.530;-5.652;2023-04-01T03:26:25;101900.69;;;14.24
69415;BMP280;56608;43.530;-5.652;2023-04-01T03:27:26;101902.56;;;14.27
69415;BMP280;56608;43.530;-5.652;2023-04-01T03:28:27;101905.50;;;14.32
69415;BMP280;56608;43.530;-5.652;2023-04-01T03:29:27;101909.28;;;14.35
69415;BMP280;56608;43.530;-5.652;2023-04-01T03:30:27;101910.03;;;14.35
69415;BMP280;56608;43.530;-5.652;2023-04-01T03:31:29;101909.84;;;14.42
69415;BMP280;56608;43.530;-5.652;2023-04-01T03:32:30;101909.97;;;14.39
69415;BMP280;56608;43.530;-5.652;2023-04-01T03:33:30;101906.34;;;14.29
69415;BMP280;56608;43.530;-5.652;2023-04-01T03:34:31;101910.91;;;14.32
69415;BMP280;56608;43.530;-5.652;2023-04-01T03:35:31;101910.03;;;14.35
69415;BMP280;56608;43.530;-5.652;2023-04-01T03:36:32;101909.19;;;14.38
69415;BMP280;56608;43.530;-5.652;2023-04-01T03:37:32;101918.50;;;14.37
69415;BMP280;56608;43.530;-5.652;2023-04-01T03:38:33;101907.78;;;14.34
69415;BMP280;56608;43.530;-5.652;2023-04-01T03:39:33;101914.22;;;14.24
69415;BMP280;56608;43.530;-5.652;2023-04-01T03:40:34;101907.28;;;14.23
69415;BMP280;56608;43.530;-5.652;2023-04-01T03:41:37;101909.56;;;14.24
69415;BMP280;56608;43.530;-5.652;2023-04-01T03:42:38;101905.34;;;14.23
69415;BMP280;56608;43.530;-5.652;2023-04-01T03:43:38;101910.31;;;14.25
69415;BMP280;56608;43.530;-5.652;2023-04-01T03:44:39;101905.03;;;14.21
69415;BMP280;56608;43.530;-5.652;2023-04-01T03:45:49;101904.59;;;14.23
69415;BMP280;56608;43.530;-5.652;2023-04-01T03:46:49;101917.87;;;14.17
69415;BMP280;56608;43.530;-5.652;2023-04-01T03:47:50;101918.22;;;14.19
69415;BMP280;56608;43.530;-5.652;2023-04-01T03:48:50;101905.44;;;14.07
69415;BMP280;56608;43.530;-5.652;2023-04-01T03:49:50;101911.25;;;14.05
69415;BMP280;56608;43.530;-5.652;2023-04-01T03:50:51;101907.25;;;14.10
69415;BMP280;56608;43.530;-5.652;2023-04-01T03:51:51;101910.72;;;14.11
69415;BMP280;56608;43.530;-5.652;2023-04-01T03:52:51;101921.31;;;14.05
69415;BMP280;56608;43.530;-5.652;2023-04-01T03:53:52;101912.44;;;14.04
69415;BMP280;56608;43.530;-5.652;2023-04-01T03:54:52;101920.47;;;14.08
69415;BMP280;56608;43.530;-5.652;2023-04-01T03:55:53;101928.66;;;14.04
69415;BMP280;56608;43.530;-5.652;2023-04-01T03:56:53;101928.72;;;14.01
69415;BMP280;56608;43.530;-5.652;2023-04-01T03:57:54;101927.50;;;13.89
69415;BMP280;56608;43.530;-5.652;2023-04-01T03:58:55;101931.91;;;13.83
69415;BMP280;56608;43.530;-5.652;2023-04-01T03:59:55;101925.97;;;13.88
69415;BMP280;56608;43.530;-5.652;2023-04-01T04:00:55;101923.62;;;13.90
69415;BMP280;56608;43.530;-5.652;2023-04-01T04:01:56;101924.63;;;13.96
69415;BMP280;56608;43.530;-5.652;2023-04-01T04:02:56;101928.84;;;13.97
69415;BMP280;56608;43.530;-5.652;2023-04-01T04:03:57;101936.25;;;13.93
69415;BMP280;56608;43.530;-5.652;2023-04-01T04:04:57;101928.72;;;14.01
69415;BMP280;56608;43.530;-5.652;2023-04-01T04:05:57;101922.41;;;14.07
69415;BMP280;56608;43.530;-5.652;2023-04-01T04:06:58;101928.72;;;14.01
69415;BMP280;56608;43.530;-5.652;2023-04-01T04:07:58;101934.06;;;14.04
69415;BMP280;56608;43.530;-5.652;2023-04-01T04:08:58;101934.25;;;13.97
69415;BMP280;56608;43.530;-5.652;2023-04-01T04:09:59;101933.03;;;13.98
69415;BMP280;56608;43.530;-5.652;2023-04-01T04:10:59;101934.13;;;14.01
69415;BMP280;56608;43.530;-5.652;2023-04-01T04:12:00;101922.84;;;13.90
69415;BMP280;56608;43.530;-5.652;2023-04-01T04:13:00;101924.38;;;13.91
69415;BMP280;56608;43.530;-5.652;2023-04-01T04:14:01;101923.69;;;13.87
69415;BMP280;56608;43.530;-5.652;2023-04-01T04:15:02;101930.28;;;13.86
69415;BMP280;56608;43.530;-5.652;2023-04-01T04:16:02;101927.16;;;13.87
69415;BMP280;56608;43.530;-5.652;2023-04-01T04:17:03;101936.56;;;13.83
69415;BMP280;56608;43.530;-5.652;2023-04-01T04:18:03;101931.03;;;13.86
69415;BMP280;56608;43.530;-5.652;2023-04-01T04:19:04;101940.25;;;13.89
69415;BMP280;56608;43.530;-5.652;2023-04-01T04:20:05;101952.66;;;13.86
69415;BMP280;56608;43.530;-5.652;2023-04-01T04:21:05;101940.94;;;13.77
69415;BMP280;56608;43.530;-5.652;2023-04-01T04:22:06;101934.41;;;13.74
69415;BMP280;56608;43.530;-5.652;2023-04-01T04:23:06;101934.75;;;13.76
69415;BMP280;56608;43.530;-5.652;2023-04-01T04:24:06;101937.72;;;13.82
69415;BMP280;56608;43.530;-5.652;2023-04-01T04:25:07;101947.78;;;13.81
69415;BMP280;56608;43.530;-5.652;2023-04-01T04:26:08;101940.69;;;13.71
69415;BMP280;56608;43.530;-5.652;2023-04-01T04:27:09;101939.41;;;13.76
69415;BMP280;56608;43.530;-5.652;2023-04-01T04:28:09;101933.25;;;13.75
69415;BMP280;56608;43.530;-5.652;2023-04-01T04:29:09;101934.38;;;13.78
69415;BMP280;56608;43.530;-5.652;2023-04-01T04:30:10;101923.56;;;13.78
69415;BMP280;56608;43.530;-5.652;2023-04-01T04:31:10;101921.41;;;13.85
69415;BMP280;56608;43.530;-5.652;2023-04-01T04:32:11;101934.50;;;13.87
69415;BMP280;56608;43.530;-5.652;2023-04-01T04:33:11;101913.06;;;13.80
69415;BMP280;56608;43.530;-5.652;2023-04-01T04:34:12;101927.94;;;13.72
69415;BMP280;56608;43.530;-5.652;2023-04-01T04:35:12;101936.31;;;13.77
69415;BMP280;56608;43.530;-5.652;2023-04-01T04:36:12;101941.28;;;13.79
69415;BMP280;56608;43.530;-5.652;2023-04-01T04:37:13;101938.50;;;13.82
69415;BMP280;56608;43.530;-5.652;2023-04-01T04:38:13;101946.94;;;13.84
69415;BMP280;56608;43.530;-5.652;2023-04-01T04:39:14;101928.03;;;13.84
69415;BMP280;56608;43.530;-5.652;2023-04-01T04:40:15;101930.62;;;13.88
69415;BMP280;56608;43.530;-5.652;2023-04-01T04:41:15;101923.28;;;13.88
69415;BMP280;56608;43.530;-5.652;2023-04-01T04:42:17;101936.69;;;13.92
69415;BMP280;56608;43.530;-5.652;2023-04-01T04:43:18;101924.28;;;13.94
69415;BMP280;56608;43.530;-5.652;2023-04-01T04:44:18;101918.41;;;13.83
69415;BMP280;56608;43.530;-5.652;2023-04-01T04:45:18;101919.59;;;13.82
69415;BMP280;56608;43.530;-5.652;2023-04-01T04:46:19;101919.16;;;13.84
69415;BMP280;56608;43.530;-5.652;2023-04-01T04:47:20;101918.63;;;13.89
69415;BMP280;56608;43.530;-5.652;2023-04-01T04:48:20;101932.31;;;13.82
69415;BMP280;56608;43.530;-5.652;2023-04-01T04:49:20;101931.72;;;13.74
69415;BMP280;56608;43.530;-5.652;2023-04-01T04:50:21;101920.44;;;13.79
69415;BMP280;56608;43.530;-5.652;2023-04-01T04:51:21;101921.53;;;13.82
69415;BMP280;56608;43.530;-5.652;2023-04-01T04:52:22;101921.19;;;13.80
69415;BMP280;56608;43.530;-5.652;2023-04-01T04:53:22;101917.00;;;13.79
69415;BMP280;56608;43.530;-5.652;2023-04-01T04:54:22;101916.53;;;13.80
69415;BMP280;56608;43.530;-5.652;2023-04-01T04:55:23;101913.06;;;13.80
69415;BMP280;56608;43.530;-5.652;2023-04-01T04:56:23;101918.16;;;13.78
69415;BMP280;56608;43.530;-5.652;2023-04-01T04:57:25;101922.53;;;13.72
69415;BMP280;56608;43.530;-5.652;2023-04-01T04:58:25;101924.47;;;13.71
69415;BMP280;56608;43.530;-5.652;2023-04-01T04:59:26;101922.84;;;13.74
69415;BMP280;56608;43.530;-5.652;2023-04-01T05:00:26;101920.16;;;13.74
69415;BMP280;56608;43.530;-5.652;2023-04-01T05:01:27;101934.94;;;13.69
69415;BMP280;56608;43.530;-5.652;2023-04-01T05:02:27;101923.72;;;13.70
69415;BMP280;56608;43.530;-5.652;2023-04-01T05:03:27;101929.03;;;13.74
69415;BMP280;56608;43.530;-5.652;2023-04-01T05:04:28;101920.25;;;13.70
69415;BMP280;56608;43.530;-5.652;2023-04-01T05:05:28;101923.50;;;13.65
69415;BMP280;56608;43.530;-5.652;2023-04-01T05:06:28;101925.44;;;13.64
69415;BMP280;56608;43.530;-5.652;2023-04-01T05:07:29;101925.09;;;13.62
69415;BMP280;56608;43.530;-5.652;2023-04-01T05:08:29;101926.78;;;13.56
69415;BMP280;56608;43.530;-5.652;2023-04-01T05:09:30;101925.50;;;13.61
69415;BMP280;56608;43.530;-5.652;2023-04-01T05:10:31;101927.44;;;13.60
69415;BMP280;56608;43.530;-5.652;2023-04-01T05:11:31;101927.66;;;13.53
69415;BMP280;56608;43.530;-5.652;2023-04-01T05:12:31;101929.63;;;13.49
69415;BMP280;56608;43.530;-5.652;2023-04-01T05:13:36;101925.50;;;13.45
69415;BMP280;56608;43.530;-5.652;2023-04-01T05:14:36;101928.09;;;13.48
69415;BMP280;56608;43.530;-5.652;2023-04-01T05:15:36;101915.97;;;13.56
69415;BMP280;56608;43.530;-5.652;2023-04-01T05:16:37;101932.53;;;13.58
69415;BMP280;56608;43.530;-5.652;2023-04-01T05:17:37;101926.13;;;13.52
69415;BMP280;56608;43.530;-5.652;2023-04-01T05:18:38;101919.19;;;13.51
69415;BMP280;56608;43.530;-5.652;2023-04-01T05:19:38;101917.16;;;13.55
69415;BMP280;56608;43.530;-5.652;2023-04-01T05:20:39;101910.69;;;13.53
69415;BMP280;56608;43.530;-5.652;2023-04-01T05:21:39;101924.59;;;13.51
69415;BMP280;56608;43.530;-5.652;2023-04-01T05:22:40;101919.19;;;13.51
69415;BMP280;56608;43.530;-5.652;2023-04-01T05:23:40;101921.47;;;13.53
69415;BMP280;56608;43.530;-5.652;2023-04-01T05:24:40;101916.09;;;13.53
69415;BMP280;56608;43.530;-5.652;2023-04-01T05:25:41;101918.41;;;13.51
69415;BMP280;56608;43.530;-5.652;2023-04-01T05:26:41;101915.81;;;13.47
69415;BMP280;56608;43.530;-5.652;2023-04-01T05:27:42;101914.56;;;13.52
69415;BMP280;56608;43.530;-5.652;2023-04-01T05:28:42;101917.94;;;13.40
69415;BMP280;56608;43.530;-5.652;2023-04-01T05:29:42;101916.66;;;13.44
69415;BMP280;56608;43.530;-5.652;2023-04-01T05:30:43;101920.88;;;13.45
69415;BMP280;56608;43.530;-5.652;2023-04-01T05:31:43;101916.53;;;13.48
69415;BMP280;56608;43.530;-5.652;2023-04-01T05:32:44;101916.09;;;13.53
69415;BMP280;56608;43.530;-5.652;2023-04-01T05:33:44;101918.03;;;13.52
69415;BMP280;56608;43.530;-5.652;2023-04-01T05:34:45;101920.72;;;13.52
69415;BMP280;56608;43.530;-5.652;2023-04-01T05:35:45;101916.50;;;13.51
69415;BMP280;56608;43.530;-5.652;2023-04-01T05:36:45;101915.63;;;13.54
69415;BMP280;56608;43.530;-5.652;2023-04-01T05:37:45;101915.97;;;13.56
69415;BMP280;56608;43.530;-5.652;2023-04-01T05:38:46;101916.84;;;13.53
69415;BMP280;56608;43.530;-5.652;2023-04-01T05:39:47;101915.63;;;13.54
69415;BMP280;56608;43.530;-5.652;2023-04-01T05:40:47;101915.97;;;13.56
69415;BMP280;56608;43.530;-5.652;2023-04-01T05:41:47;101917.50;;;13.57
69415;BMP280;56608;43.530;-5.652;2023-04-01T05:42:48;101919.34;;;13.60
69415;BMP280;56608;43.530;-5.652;2023-04-01T05:43:48;101911.16;;;13.64
69415;BMP280;56608;43.530;-5.652;2023-04-01T05:44:48;101914.09;;;13.69
69415;BMP280;56608;43.530;-5.652;2023-04-01T05:45:49;101914.28;;;13.62
69415;BMP280;56608;43.530;-5.652;2023-04-01T05:46:49;101918.41;;;13.67
69415;BMP280;56608;43.530;-5.652;2023-04-01T05:47:50;101913.09;;;13.63
69415;BMP280;56608;43.530;-5.652;2023-04-01T05:48:50;101913.75;;;13.67
69415;BMP280;56608;43.530;-5.652;2023-04-01T05:49:50;101923.03;;;13.66
69415;BMP280;56608;43.530;-5.652;2023-04-01T05:50:51;101908.34;;;13.67
69415;BMP280;56608;43.530;-5.652;2023-04-01T05:51:51;101919.50;;;13.69
69415;BMP280;56608;43.530;-5.652;2023-04-01T05:52:52;101923.38;;;13.68
69415;BMP280;56608;43.530;-5.652;2023-04-01T05:53:52;101924.13;;;13.69
69415;BMP280;56608;43.530;-5.652;2023-04-01T05:54:53;101921.03;;;13.70
69415;BMP280;56608;43.530;-5.652;2023-04-01T05:55:53;101922.63;;;13.68